createdAt,value
2019-03-17T00:01:02.049Z,97.80
2019-03-17T00:05:07.261Z,97.80
2019-03-17T00:09:12.254Z,97.90
2019-03-17T00:13:17.886Z,98.00
2019-03-17T00:17:25.130Z,98.30
2019-03-17T00:21:29.520Z,98.20
2019-03-17T00:25:34.563Z,98.30
2019-03-17T00:29:39.541Z,98.50
2019-03-17T00:33:44.542Z,98.40
2019-03-17T00:37:49.507Z,98.20
2019-03-17T00:41:54.494Z,98.30
2019-03-17T00:45:59.479Z,98.20
2019-03-17T00:50:07.406Z,98.40
2019-03-17T00:54:12.389Z,98.80
2019-03-17T00:58:17.381Z,98.10
2019-03-17T01:02:22.373Z,97.80
2019-03-17T01:06:27.474Z,97.60
2019-03-17T01:10:32.462Z,97.50
2019-03-17T01:14:37.534Z,97.50
2019-03-17T01:18:42.513Z,97.80
2019-03-17T01:22:47.481Z,97.90
2019-03-17T01:26:52.470Z,98.10
2019-03-17T01:30:57.451Z,98.10
2019-03-17T01:35:08.955Z,98.40
2019-03-17T01:39:09.307Z,98.70
2019-03-17T01:43:14.289Z,98.70
2019-03-17T01:47:19.264Z,98.70
2019-03-17T01:51:24.253Z,98.80
2019-03-17T01:55:29.311Z,99.20
2019-03-17T01:59:34.305Z,99.90
2019-03-17T02:03:39.281Z,99.90
2019-03-17T02:07:44.333Z,99.80
2019-03-17T02:11:49.331Z,99.80
2019-03-17T02:15:55.383Z,99.70
2019-03-17T02:20:00.395Z,99.80
2019-03-17T02:24:05.379Z,99.90
2019-03-17T02:28:10.333Z,99.90
2019-03-17T02:32:15.320Z,99.90
2019-03-17T02:36:20.298Z,99.90
2019-03-17T02:40:25.444Z,99.90
2019-03-17T02:44:30.482Z,99.90
2019-03-17T02:48:35.509Z,99.90
2019-03-17T02:52:40.499Z,99.40
2019-03-17T02:56:45.490Z,99.10
2019-03-17T03:00:50.474Z,98.90
2019-03-17T03:04:55.545Z,98.70
2019-03-17T03:09:00.508Z,98.70
2019-03-17T03:13:05.493Z,98.50
2019-03-17T03:17:10.538Z,98.50
2019-03-17T03:21:15.566Z,98.10
2019-03-17T03:25:20.635Z,97.50
2019-03-17T03:29:27.312Z,96.90
2019-03-17T03:33:32.208Z,96.40
2019-03-17T03:37:37.193Z,95.80
2019-03-17T03:41:42.186Z,94.90
2019-03-17T03:45:47.176Z,94.00
2019-03-17T03:49:52.162Z,93.60
2019-03-17T03:53:57.193Z,93.10
2019-03-17T03:58:02.444Z,92.50
2019-03-17T04:02:07.696Z,92.00
2019-03-17T04:06:25.761Z,92.00
2019-03-17T04:10:19.834Z,91.80
2019-03-17T04:14:24.864Z,91.50
2019-03-17T04:18:29.889Z,91.40
2019-03-17T04:22:35.160Z,91.30
2019-03-17T04:26:40.142Z,91.10
2019-03-17T04:30:45.407Z,90.70
2019-03-17T04:34:50.373Z,90.60
2019-03-17T04:38:56.456Z,90.40
2019-03-17T04:43:01.439Z,90.20
2019-03-17T04:47:06.426Z,90.10
2019-03-17T04:51:11.418Z,89.70
2019-03-17T04:55:16.417Z,88.20
2019-03-17T04:59:21.450Z,85.00
2019-03-17T05:03:26.697Z,83.40
2019-03-17T05:07:31.955Z,81.40
2019-03-17T05:11:37.209Z,80.50
2019-03-17T05:15:43.544Z,79.50
2019-03-17T05:19:48.933Z,77.80
2019-03-17T05:23:54.220Z,77.10
2019-03-17T05:27:59.199Z,75.30
2019-03-17T05:32:04.525Z,74.20
2019-03-17T05:36:09.800Z,73.30
2019-03-17T05:40:15.021Z,72.80
2019-03-17T05:44:20.281Z,68.70
2019-03-17T05:48:27.487Z,65.40
2019-03-17T05:52:32.691Z,65.40
2019-03-17T05:56:37.941Z,64.80
2019-03-17T06:00:43.285Z,63.50
2019-03-17T06:04:48.527Z,61.70
2019-03-17T06:08:53.795Z,59.50
2019-03-17T06:12:59.069Z,56.30
2019-03-17T06:17:04.340Z,54.50
2019-03-17T06:21:09.616Z,50.70
2019-03-17T06:25:15.020Z,46.40
2019-03-17T06:29:20.369Z,43.40
2019-03-17T06:33:25.641Z,41.60
2019-03-17T06:37:31.445Z,38.60
2019-03-17T06:41:36.781Z,37.20
2019-03-17T06:45:42.033Z,36.10
2019-03-17T06:49:47.297Z,34.10
2019-03-17T06:53:56.561Z,34.00
2019-03-17T06:58:00.515Z,32.60
2019-03-17T07:02:05.790Z,30.80
2019-03-17T07:06:11.066Z,30.00
2019-03-17T07:10:16.332Z,30.00
2019-03-17T07:14:21.594Z,29.60
2019-03-17T07:18:29.350Z,29.00
2019-03-17T07:22:34.638Z,28.30
2019-03-17T07:26:39.895Z,28.50
2019-03-17T07:30:45.146Z,28.50
2019-03-17T07:34:50.409Z,27.80
2019-03-17T07:38:55.762Z,27.40
2019-03-17T07:43:01.029Z,26.80
2019-03-17T07:47:06.305Z,26.70
2019-03-17T07:51:11.566Z,26.20
2019-03-17T07:55:16.833Z,25.40
2019-03-17T07:59:22.099Z,26.60
2019-03-17T08:03:27.365Z,25.60
2019-03-17T08:07:32.693Z,24.90
2019-03-17T08:11:37.988Z,26.00
2019-03-17T08:15:43.231Z,26.10
2019-03-17T08:19:48.494Z,25.80
2019-03-17T08:23:53.759Z,26.30
2019-03-17T08:27:59.017Z,26.20
2019-03-17T08:32:04.379Z,28.10
2019-03-17T08:36:09.638Z,26.90
2019-03-17T08:40:19.024Z,26.70
2019-03-17T08:44:24.351Z,27.20
2019-03-17T08:48:29.701Z,26.70
2019-03-17T08:52:34.987Z,27.10
2019-03-17T08:56:40.305Z,26.80
2019-03-17T09:00:45.569Z,27.30
2019-03-17T09:04:50.927Z,27.90
2019-03-17T09:08:56.187Z,27.40
2019-03-17T09:13:04.148Z,26.30
2019-03-17T09:17:14.413Z,25.50
2019-03-17T09:21:15.282Z,24.80
2019-03-17T09:25:20.549Z,24.50
2019-03-17T09:29:25.810Z,24.10
2019-03-17T09:33:31.074Z,23.90
2019-03-17T09:37:36.349Z,25.70
2019-03-17T09:41:41.598Z,24.70
2019-03-17T09:45:46.865Z,25.50
2019-03-17T09:49:52.199Z,25.80
2019-03-17T09:53:57.463Z,23.30
2019-03-17T09:58:02.758Z,23.40
2019-03-17T10:02:08.007Z,24.70
2019-03-17T10:06:13.265Z,26.10
2019-03-17T10:10:20.274Z,25.80
2019-03-17T10:14:25.537Z,26.50
2019-03-17T10:18:30.944Z,26.70
2019-03-17T10:22:36.113Z,26.20
2019-03-17T10:26:41.387Z,26.00
2019-03-17T10:30:46.654Z,26.20
2019-03-17T10:34:51.933Z,26.50
2019-03-17T10:38:57.227Z,25.60
2019-03-17T10:43:02.470Z,24.60
2019-03-17T10:47:07.721Z,25.20
2019-03-17T10:51:12.987Z,26.20
2019-03-17T10:55:18.336Z,27.60
2019-03-17T10:59:23.594Z,27.80
2019-03-17T11:03:28.857Z,28.20
2019-03-17T11:07:34.102Z,27.00
2019-03-17T11:11:39.383Z,26.10
2019-03-17T11:15:44.657Z,24.90
2019-03-17T11:19:49.926Z,26.30
2019-03-17T11:23:55.202Z,26.20
2019-03-17T11:28:02.435Z,27.40
2019-03-17T11:32:08.573Z,28.20
2019-03-17T11:36:15.782Z,28.30
2019-03-17T11:40:21.699Z,29.30
2019-03-17T11:44:26.984Z,30.80
2019-03-17T11:48:33.329Z,30.50
2019-03-17T11:52:39.149Z,30.90
2019-03-17T11:56:44.434Z,30.10
2019-03-17T12:00:49.742Z,31.50
2019-03-17T12:04:55.114Z,32.10
2019-03-17T12:09:00.458Z,33.40
2019-03-17T12:13:06.889Z,33.70
2019-03-17T12:17:12.162Z,35.30
2019-03-17T12:21:17.540Z,37.10
2019-03-17T12:25:22.813Z,38.60
2019-03-17T12:29:28.157Z,40.40
2019-03-17T12:33:33.499Z,41.40
2019-03-17T12:37:38.752Z,41.70
2019-03-17T12:41:44.031Z,41.60
2019-03-17T12:45:49.354Z,42.30
2019-03-17T12:49:54.653Z,41.90
2019-03-17T12:53:59.931Z,42.20
2019-03-17T12:58:05.189Z,42.90
2019-03-17T13:02:10.469Z,44.00
2019-03-17T13:06:15.765Z,44.80
2019-03-17T13:10:22.077Z,45.40
2019-03-17T13:14:27.373Z,45.10
2019-03-17T13:18:32.646Z,45.40
2019-03-17T13:22:38.023Z,45.20
2019-03-17T13:26:44.393Z,44.70
2019-03-17T13:30:49.673Z,45.40
2019-03-17T13:34:55.060Z,45.90
2019-03-17T13:39:00.306Z,46.10
2019-03-17T13:43:05.706Z,45.90
2019-03-17T13:47:10.981Z,46.00
2019-03-17T13:51:16.261Z,45.40
2019-03-17T13:55:21.581Z,45.50
2019-03-17T13:59:26.837Z,45.40
2019-03-17T14:03:32.085Z,45.10
2019-03-17T14:07:37.434Z,45.40
2019-03-17T14:11:43.791Z,45.50
2019-03-17T14:15:49.066Z,46.30
2019-03-17T14:19:54.349Z,47.40
2019-03-17T14:23:59.722Z,47.40
2019-03-17T14:28:05.073Z,47.30
2019-03-17T14:32:10.353Z,47.90
2019-03-17T14:36:15.635Z,48.20
2019-03-17T14:40:20.928Z,48.50
2019-03-17T14:44:26.362Z,49.20
2019-03-17T14:48:31.650Z,50.50
2019-03-17T14:52:36.968Z,53.60
2019-03-17T14:56:42.241Z,55.40
2019-03-17T15:00:47.514Z,58.40
2019-03-17T15:04:52.827Z,61.10
2019-03-17T15:08:58.120Z,65.40
2019-03-17T15:13:03.390Z,71.30
2019-03-17T15:17:08.675Z,82.90
2019-03-17T15:21:13.944Z,91.40
2019-03-17T15:25:19.210Z,94.10
2019-03-17T15:29:24.504Z,95.10
2019-03-17T15:33:29.615Z,96.00
2019-03-17T15:37:34.654Z,97.20
2019-03-17T15:41:39.625Z,97.90
2019-03-17T15:45:44.643Z,98.60
2019-03-17T15:49:49.691Z,98.90
2019-03-17T15:53:54.692Z,99.10
2019-03-17T15:57:59.742Z,98.50
2019-03-17T16:02:04.877Z,98.10
2019-03-17T16:06:09.859Z,97.70
2019-03-17T16:10:22.847Z,97.30
2019-03-17T16:14:28.013Z,96.90
2019-03-17T16:18:33.410Z,96.40
2019-03-17T16:22:38.483Z,96.40
2019-03-17T16:26:43.462Z,95.90
2019-03-17T16:30:48.445Z,95.30
2019-03-17T16:34:53.418Z,94.50
2019-03-17T16:38:58.686Z,94.80
2019-03-17T16:43:04.239Z,94.20
2019-03-17T16:47:09.320Z,94.20
2019-03-17T16:51:14.418Z,94.50
2019-03-17T16:55:19.716Z,94.70
2019-03-17T16:59:24.960Z,94.80
2019-03-17T17:03:30.414Z,94.10
2019-03-17T17:07:35.451Z,93.80
2019-03-17T17:11:40.626Z,94.30
2019-03-17T17:15:45.601Z,93.70
2019-03-17T17:19:50.592Z,93.70
2019-03-17T17:23:55.668Z,93.30
2019-03-17T17:28:00.687Z,93.60
2019-03-17T17:32:05.646Z,93.70
2019-03-17T17:36:10.629Z,93.50
2019-03-17T17:40:20.049Z,93.70
2019-03-17T17:44:25.042Z,93.90
2019-03-17T17:48:30.019Z,93.60
2019-03-17T17:52:35.019Z,93.50
2019-03-17T17:56:40.021Z,93.60
2019-03-17T18:00:46.625Z,93.70
2019-03-17T18:04:51.613Z,93.60
2019-03-17T18:08:56.930Z,93.70
2019-03-17T18:13:01.915Z,93.80
2019-03-17T18:17:06.903Z,93.60
2019-03-17T18:21:11.865Z,93.70
2019-03-17T18:25:19.220Z,93.80
2019-03-17T18:29:24.575Z,93.80
2019-03-17T18:33:29.585Z,93.80
2019-03-17T18:37:34.580Z,93.70
2019-03-17T18:41:39.569Z,93.70
2019-03-17T18:45:44.647Z,93.60
2019-03-17T18:49:49.635Z,93.90
2019-03-17T18:53:54.661Z,93.40
2019-03-17T18:57:59.641Z,93.40
2019-03-17T19:02:04.809Z,93.30
2019-03-17T19:06:09.791Z,93.30
2019-03-17T19:10:21.336Z,93.30
2019-03-17T19:14:26.425Z,93.10
2019-03-17T19:18:31.434Z,92.70
2019-03-17T19:22:36.417Z,92.50
2019-03-17T19:26:41.413Z,92.30
2019-03-17T19:30:46.409Z,92.30
2019-03-17T19:34:51.484Z,92.40
2019-03-17T19:38:56.567Z,92.30
2019-03-17T19:43:01.621Z,92.20
2019-03-17T19:47:06.759Z,92.50
2019-03-17T19:51:11.812Z,93.80
2019-03-17T19:55:16.933Z,94.90
2019-03-17T19:59:22.448Z,94.80
2019-03-17T20:03:27.443Z,95.10
2019-03-17T20:07:32.438Z,95.00
2019-03-17T20:11:37.426Z,94.60
2019-03-17T20:15:42.512Z,94.40
2019-03-17T20:19:47.701Z,94.10
2019-03-17T20:23:52.686Z,93.60
2019-03-17T20:27:57.693Z,93.80
2019-03-17T20:32:03.081Z,93.80
2019-03-17T20:36:08.169Z,94.00
2019-03-17T20:40:17.098Z,94.00
2019-03-17T20:44:22.083Z,94.10
2019-03-17T20:48:27.098Z,94.20
2019-03-17T20:52:32.069Z,94.10
2019-03-17T20:56:37.052Z,93.80
2019-03-17T21:00:42.135Z,93.70
2019-03-17T21:04:47.240Z,93.60
2019-03-17T21:08:52.297Z,93.80
2019-03-17T21:12:57.368Z,93.80
2019-03-17T21:17:02.420Z,94.10
2019-03-17T21:21:08.422Z,94.00
2019-03-17T21:25:13.666Z,93.90
2019-03-17T21:29:18.709Z,94.10
2019-03-17T21:33:23.638Z,93.90
2019-03-17T21:37:28.601Z,94.10
2019-03-17T21:41:33.661Z,94.50
2019-03-17T21:45:38.649Z,94.00
2019-03-17T21:49:43.633Z,93.90
2019-03-17T21:53:48.620Z,93.80
2019-03-17T21:57:53.590Z,93.80
2019-03-17T22:01:58.580Z,93.60
2019-03-17T22:06:03.637Z,93.80
2019-03-17T22:10:16.201Z,94.00
2019-03-17T22:14:21.185Z,94.10
2019-03-17T22:18:26.218Z,94.10
2019-03-17T22:22:31.187Z,94.60
2019-03-17T22:26:36.264Z,94.50
2019-03-17T22:30:41.265Z,94.80
2019-03-17T22:34:46.233Z,95.40
2019-03-17T22:38:51.244Z,95.10
2019-03-17T22:42:56.216Z,95.60
2019-03-17T22:47:01.217Z,95.90
2019-03-17T22:51:06.265Z,95.90
2019-03-17T22:55:11.796Z,96.30
2019-03-17T22:59:16.787Z,95.80
2019-03-17T23:03:21.748Z,95.70
2019-03-17T23:07:26.763Z,95.80
2019-03-17T23:11:31.741Z,95.60
2019-03-17T23:15:36.756Z,95.50
2019-03-17T23:19:41.910Z,95.30
2019-03-17T23:23:46.876Z,94.90
2019-03-17T23:27:51.930Z,95.00
2019-03-17T23:31:56.923Z,95.20
2019-03-17T23:36:01.942Z,95.70
2019-03-17T23:40:09.763Z,96.30
2019-03-17T23:44:14.953Z,95.10
2019-03-17T23:48:19.930Z,95.80
2019-03-17T23:52:24.923Z,96.50
2019-03-17T23:56:30.967Z,96.20
